createdAt,value
2022-08-21T00:00:32.784Z,100484.56
2022-08-21T00:03:06.449Z,100492.72
2022-08-21T00:05:37.477Z,100495.81
2022-08-21T00:08:05.228Z,100497.38
2022-08-21T00:10:33.305Z,100498.56
2022-08-21T00:13:02.839Z,100505.22
2022-08-21T00:15:31.966Z,100516.47
2022-08-21T00:18:00.025Z,100512.16
2022-08-21T00:20:28.087Z,100510.03
2022-08-21T00:22:55.257Z,100509.41
2022-08-21T00:25:26.159Z,100495.41
2022-08-21T00:27:54.817Z,100497.56
2022-08-21T00:30:24.344Z,100483.56
2022-08-21T00:32:53.827Z,100486.13
2022-08-21T00:35:26.382Z,100489.22
2022-08-21T00:37:53.772Z,100479.50
2022-08-21T00:40:25.964Z,100477.63
2022-08-21T00:42:54.001Z,100482.25
2022-08-21T00:45:23.408Z,100469.19
2022-08-21T00:47:52.857Z,100455.50
2022-08-21T00:50:22.320Z,100450.63
2022-08-21T00:52:53.004Z,100449.06
2022-08-21T00:55:23.478Z,100455.84
2022-08-21T00:57:55.595Z,100449.38
2022-08-21T01:00:29.563Z,100439.09
2022-08-21T01:02:58.551Z,100433.06
2022-08-21T01:05:26.260Z,100444.31
2022-08-21T01:07:54.180Z,100447.06
2022-08-21T01:10:24.394Z,100433.84
2022-08-21T01:12:56.971Z,100411.06
2022-08-21T01:15:29.523Z,100421.22
2022-08-21T01:17:56.884Z,100415.19
2022-08-21T01:20:32.615Z,100420.59
2022-08-21T01:23:02.266Z,100414.09
2022-08-21T01:25:29.921Z,100414.88
2022-08-21T01:28:00.389Z,100412.56
2022-08-21T01:30:29.722Z,100400.09
2022-08-21T01:32:58.066Z,100400.72
2022-08-21T01:35:25.439Z,100411.00
2022-08-21T01:37:52.629Z,100402.72
2022-08-21T01:40:20.322Z,100413.75
2022-08-21T01:42:47.560Z,100410.06
2022-08-21T01:45:15.807Z,100413.16
2022-08-21T01:47:44.350Z,100407.75
2022-08-21T01:50:14.717Z,100412.16
2022-08-21T01:52:42.421Z,100418.69
2022-08-21T01:55:15.753Z,100422.22
2022-08-21T01:57:43.072Z,100421.94
2022-08-21T02:00:13.694Z,100426.25
2022-08-21T02:02:42.180Z,100424.28
2022-08-21T02:05:12.084Z,100427.53
2022-08-21T02:07:41.089Z,100437.84
2022-08-21T02:10:10.244Z,100443.75
2022-08-21T02:12:37.440Z,100450.47
2022-08-21T02:15:06.300Z,100453.94
2022-08-21T02:17:48.941Z,100446.50
2022-08-21T02:20:23.755Z,100448.47
2022-08-21T02:22:51.250Z,100457.28
2022-08-21T02:25:21.158Z,100457.31
2022-08-21T02:27:49.120Z,100462.38
2022-08-21T02:30:19.960Z,100453.69
2022-08-21T02:32:47.118Z,100439.19
2022-08-21T02:35:14.440Z,100454.81
2022-08-21T02:37:56.921Z,100452.63
2022-08-21T02:40:27.121Z,100437.31
2022-08-21T02:42:54.760Z,100433.31
2022-08-21T02:45:22.244Z,100431.81
2022-08-21T02:47:51.739Z,100426.09
2022-08-21T02:50:23.127Z,100426.59
2022-08-21T02:52:55.029Z,100425.56
2022-08-21T02:55:29.796Z,100428.22
2022-08-21T02:57:59.259Z,100419.41
2022-08-21T03:00:29.208Z,100425.31
2022-08-21T03:02:57.528Z,100427.78
2022-08-21T03:05:26.952Z,100424.09
2022-08-21T03:07:54.549Z,100431.31
2022-08-21T03:10:22.839Z,100424.69
2022-08-21T03:12:50.343Z,100429.50
2022-08-21T03:15:20.606Z,100428.13
2022-08-21T03:17:48.491Z,100423.56
2022-08-21T03:20:18.039Z,100423.75
2022-08-21T03:22:48.520Z,100415.63
2022-08-21T03:25:27.040Z,100417.16
2022-08-21T03:28:13.119Z,100429.16
2022-08-21T03:30:46.360Z,100419.81
2022-08-21T03:33:15.445Z,100428.31
2022-08-21T03:35:45.415Z,100425.97
2022-08-21T03:38:14.084Z,100425.06
2022-08-21T03:40:43.750Z,100424.22
2022-08-21T03:43:11.214Z,100408.03
2022-08-21T03:45:39.349Z,100410.13
2022-08-21T03:48:07.852Z,100416.13
2022-08-21T03:50:40.937Z,100409.94
2022-08-21T03:53:16.985Z,100417.50
2022-08-21T03:55:50.491Z,100417.84
2022-08-21T03:58:20.317Z,100419.41
2022-08-21T04:00:50.411Z,100420.31
2022-08-21T04:03:18.265Z,100414.66
2022-08-21T04:05:46.958Z,100424.00
2022-08-21T04:08:15.744Z,100420.94
2022-08-21T04:10:44.839Z,100414.66
2022-08-21T04:13:12.164Z,100411.22
2022-08-21T04:15:39.711Z,100416.66
2022-08-21T04:18:06.849Z,100415.09
2022-08-21T04:20:34.630Z,100408.91
2022-08-21T04:23:03.201Z,100404.63
2022-08-21T04:25:30.527Z,100398.44
2022-08-21T04:27:58.317Z,100407.72
2022-08-21T04:30:28.275Z,100406.75
2022-08-21T04:32:58.432Z,100408.47
2022-08-21T04:35:28.794Z,100414.91
2022-08-21T04:37:56.747Z,100413.56
2022-08-21T04:40:26.548Z,100416.31
2022-08-21T04:43:02.493Z,100416.66
2022-08-21T04:45:34.835Z,100422.47
2022-08-21T04:48:04.481Z,100424.28
2022-08-21T04:50:44.077Z,100440.06
2022-08-21T04:53:23.579Z,100437.59
2022-08-21T04:55:53.684Z,100439.66
2022-08-21T04:58:26.087Z,100433.59
2022-08-21T05:00:56.373Z,100432.38
2022-08-21T05:03:24.407Z,100429.03
2022-08-21T05:05:51.779Z,100439.91
2022-08-21T05:08:22.010Z,100437.50
2022-08-21T05:10:49.324Z,100443.53
2022-08-21T05:13:17.213Z,100434.88
2022-08-21T05:15:44.446Z,100434.81
2022-08-21T05:18:11.956Z,100447.78
2022-08-21T05:20:39.240Z,100448.75
2022-08-21T05:23:11.616Z,100449.34
2022-08-21T05:25:39.189Z,100454.03
2022-08-21T05:28:07.456Z,100460.88
2022-08-21T05:30:35.655Z,100450.94
2022-08-21T05:33:05.432Z,100454.03
2022-08-21T05:35:34.058Z,100456.97
2022-08-21T05:38:02.189Z,100459.69
2022-08-21T05:40:29.960Z,100450.16
2022-08-21T05:42:58.209Z,100463.19
2022-08-21T05:45:41.534Z,100464.25
2022-08-21T05:48:15.259Z,100469.00
2022-08-21T05:50:43.436Z,100471.75
2022-08-21T05:53:11.492Z,100467.25
2022-08-21T05:55:44.766Z,100463.03
2022-08-21T05:58:14.619Z,100468.03
2022-08-21T06:00:42.530Z,100463.25
2022-08-21T06:03:18.667Z,100463.00
2022-08-21T06:05:46.813Z,100460.88
2022-08-21T06:08:15.385Z,100459.78
2022-08-21T06:10:42.988Z,100443.56
2022-08-21T06:13:10.483Z,100452.22
2022-08-21T06:15:37.628Z,100462.78
2022-08-21T06:18:05.022Z,100457.56
2022-08-21T06:20:33.107Z,100449.47
2022-08-21T06:23:00.621Z,100457.88
2022-08-21T06:25:28.758Z,100470.97
2022-08-21T06:28:06.328Z,100460.44
2022-08-21T06:30:34.984Z,100465.19
2022-08-21T06:33:03.375Z,100475.16
2022-08-21T06:35:31.252Z,100466.63
2022-08-21T06:37:59.195Z,100474.22
2022-08-21T06:40:30.487Z,100470.81
2022-08-21T06:43:15.518Z,100471.72
2022-08-21T06:45:43.052Z,100471.72
2022-08-21T06:48:11.940Z,100469.13
2022-08-21T06:50:40.625Z,100468.34
2022-08-21T06:53:11.596Z,100474.59
2022-08-21T06:55:40.168Z,100474.81
2022-08-21T06:58:08.053Z,100474.88
2022-08-21T07:00:36.217Z,100470.91
2022-08-21T07:03:03.507Z,100472.41
2022-08-21T07:05:31.706Z,100462.34
2022-08-21T07:07:59.696Z,100468.53
2022-08-21T07:10:27.907Z,100472.78
2022-08-21T07:13:00.450Z,100462.63
2022-08-21T07:15:32.397Z,100456.44
2022-08-21T07:18:01.122Z,100461.59
2022-08-21T07:20:30.205Z,100465.72
2022-08-21T07:23:04.480Z,100466.69
2022-08-21T07:25:32.393Z,100463.91
2022-08-21T07:27:59.567Z,100464.13
2022-08-21T07:30:26.729Z,100461.19
2022-08-21T07:32:54.638Z,100461.94
2022-08-21T07:35:23.174Z,100467.72
2022-08-21T07:37:50.940Z,100472.38
2022-08-21T07:40:19.063Z,100452.34
2022-08-21T07:42:48.343Z,100464.19
2022-08-21T07:45:16.485Z,100461.06
2022-08-21T07:47:43.587Z,100455.47
2022-08-21T07:50:13.117Z,100462.50
2022-08-21T07:52:41.771Z,100455.31
2022-08-21T07:55:11.893Z,100462.94
2022-08-21T07:57:39.931Z,100456.50
2022-08-21T08:00:15.884Z,100458.78
2022-08-21T08:02:47.744Z,100453.34
2022-08-21T08:05:14.916Z,100449.41
2022-08-21T08:07:42.125Z,100452.81
2022-08-21T08:10:10.608Z,100446.63
2022-08-21T08:12:40.452Z,100446.63
2022-08-21T08:15:10.287Z,100438.13
2022-08-21T08:17:38.833Z,100445.66
2022-08-21T08:20:11.953Z,100450.09
2022-08-21T08:22:40.125Z,100453.16
2022-08-21T08:25:09.824Z,100448.66
2022-08-21T08:27:38.085Z,100437.91
2022-08-21T08:30:07.148Z,100443.31
2022-08-21T08:32:34.629Z,100445.81
2022-08-21T08:35:01.897Z,100446.28
2022-08-21T08:37:34.461Z,100443.97
2022-08-21T08:40:04.608Z,100436.72
2022-08-21T08:42:36.779Z,100432.94
2022-08-21T08:45:11.815Z,100432.06
2022-08-21T08:47:48.913Z,100429.13
2022-08-21T08:50:41.467Z,100429.03
2022-08-21T08:53:16.103Z,100425.00
2022-08-21T08:55:46.037Z,100439.28
2022-08-21T08:58:25.669Z,100435.53
2022-08-21T09:00:56.130Z,100434.97
2022-08-21T09:03:25.292Z,100423.69
2022-08-21T09:05:58.857Z,100425.59
2022-08-21T09:08:50.741Z,100421.69
2022-08-21T09:11:33.554Z,100414.91
2022-08-21T09:14:25.443Z,100418.53
2022-08-21T09:17:45.360Z,100409.97
2022-08-21T09:20:38.864Z,100403.56
2022-08-21T09:23:20.777Z,100401.13
2022-08-21T09:26:15.312Z,100403.56
2022-08-21T09:28:43.757Z,100393.09
2022-08-21T09:31:26.292Z,100399.13
2022-08-21T09:34:01.703Z,100397.28
2022-08-21T09:36:50.376Z,100391.63
2022-08-21T09:39:29.756Z,100386.38
2022-08-21T09:42:09.147Z,100378.97
2022-08-21T09:44:41.118Z,100377.06
2022-08-21T09:47:10.910Z,100378.97
2022-08-21T09:49:41.036Z,100367.63
2022-08-21T09:52:22.860Z,100366.91
2022-08-21T09:54:55.443Z,100364.91
2022-08-21T09:57:41.713Z,100357.91
2022-08-21T10:00:28.421Z,100352.22
2022-08-21T10:02:55.587Z,100352.44
2022-08-21T10:05:26.223Z,100350.06
2022-08-21T10:07:53.857Z,100355.97
2022-08-21T10:10:24.148Z,100363.09
2022-08-21T10:13:04.448Z,100364.28
2022-08-21T10:15:46.725Z,100356.56
2022-08-21T10:18:31.392Z,100349.50
2022-08-21T10:21:12.134Z,100343.81
2022-08-21T10:24:01.266Z,100343.97
2022-08-21T10:26:46.567Z,100331.88
2022-08-21T10:29:33.841Z,100347.63
2022-08-21T10:32:42.898Z,100347.63
2022-08-21T10:35:22.240Z,100337.75
2022-08-21T10:38:39.244Z,100342.84
2022-08-21T10:42:06.304Z,100331.81
2022-08-21T10:44:40.255Z,100335.19
2022-08-21T10:47:20.127Z,100327.81
2022-08-21T10:50:05.392Z,100339.22
2022-08-21T10:52:54.873Z,100328.25
2022-08-21T10:55:36.558Z,100317.63
2022-08-21T10:58:11.343Z,100316.13
2022-08-21T11:01:19.161Z,100318.44
2022-08-21T11:03:52.861Z,100313.66
2022-08-21T11:06:25.137Z,100304.69
2022-08-21T11:09:05.072Z,100302.38
2022-08-21T11:12:10.959Z,100287.72
2022-08-21T11:14:59.939Z,100276.47
2022-08-21T11:17:37.452Z,100275.69
2022-08-21T11:20:14.865Z,100274.28
2022-08-21T11:22:57.889Z,100275.34
2022-08-21T11:25:53.300Z,100274.38
2022-08-21T11:28:53.698Z,100263.97
2022-08-21T11:31:23.836Z,100270.31
2022-08-21T11:34:06.173Z,100272.91
2022-08-21T11:36:39.142Z,100269.34
2022-08-21T11:39:27.817Z,100267.28
2022-08-21T11:42:27.790Z,100267.00
2022-08-21T11:45:04.109Z,100272.72
2022-08-21T11:47:57.253Z,100269.03
2022-08-21T11:50:36.083Z,100269.94
2022-08-21T11:53:06.414Z,100271.28
2022-08-21T11:55:33.459Z,100277.44
2022-08-21T11:58:09.368Z,100274.81
2022-08-21T12:00:48.995Z,100276.56
2022-08-21T12:03:35.963Z,100277.31
2022-08-21T12:06:31.207Z,100284.81
2022-08-21T12:09:01.904Z,100302.69
2022-08-21T12:11:31.081Z,100308.19
2022-08-21T12:14:14.679Z,100315.84
2022-08-21T12:16:44.918Z,100306.09
2022-08-21T12:19:21.262Z,100300.59
2022-08-21T12:22:06.620Z,100293.25
2022-08-21T12:24:39.553Z,100285.16
2022-08-21T12:27:21.877Z,100310.78
2022-08-21T12:29:51.567Z,100327.13
2022-08-21T12:32:18.695Z,100324.38
2022-08-21T12:34:56.224Z,100319.50
2022-08-21T12:37:40.918Z,100325.63
2022-08-21T12:40:20.202Z,100345.59
2022-08-21T12:42:58.703Z,100343.25
2022-08-21T12:45:45.498Z,100337.25
2022-08-21T12:48:19.712Z,100316.47
2022-08-21T12:51:01.700Z,100319.66
2022-08-21T12:53:36.967Z,100319.66
2022-08-21T12:56:10.062Z,100326.13
2022-08-21T12:58:37.389Z,100332.19
2022-08-21T13:01:08.713Z,100332.38
2022-08-21T13:03:38.368Z,100330.41
2022-08-21T13:06:07.007Z,100337.97
2022-08-21T13:08:40.792Z,100340.88
2022-08-21T13:11:15.306Z,100346.47
2022-08-21T13:13:46.814Z,100354.72
2022-08-21T13:16:23.509Z,100356.41
2022-08-21T13:19:09.672Z,100347.91
2022-08-21T13:21:43.994Z,100343.00
2022-08-21T13:24:39.151Z,100337.91
2022-08-21T13:27:04.697Z,100334.94
2022-08-21T13:29:35.949Z,100339.31
2022-08-21T13:32:08.075Z,100333.38
2022-08-21T13:34:37.965Z,100334.09
2022-08-21T13:37:08.249Z,100335.00
2022-08-21T13:39:35.985Z,100320.16
2022-08-21T13:42:12.216Z,100321.03
2022-08-21T13:44:44.083Z,100323.00
2022-08-21T13:47:14.593Z,100324.75
2022-08-21T13:49:46.511Z,100320.38
2022-08-21T13:52:26.806Z,100313.97
2022-08-21T13:55:01.356Z,100315.53
2022-08-21T13:57:32.143Z,100320.06
2022-08-21T14:00:19.429Z,100313.34
2022-08-21T14:02:50.511Z,100312.03
2022-08-21T14:05:27.290Z,100307.56
2022-08-21T14:08:16.707Z,100307.88
2022-08-21T14:10:49.072Z,100305.13
2022-08-21T14:13:38.272Z,100315.16
2022-08-21T14:16:14.973Z,100302.31
2022-08-21T14:18:54.618Z,100281.72
2022-08-21T14:21:34.084Z,100268.56
2022-08-21T14:24:31.522Z,100261.88
2022-08-21T14:27:07.223Z,100253.38
2022-08-21T14:29:38.402Z,100271.41
2022-08-21T14:32:25.062Z,100270.84
2022-08-21T14:34:54.604Z,100268.78
2022-08-21T14:37:22.831Z,100268.28
2022-08-21T14:39:50.136Z,100262.97
2022-08-21T14:42:17.568Z,100258.41
2022-08-21T14:44:44.848Z,100258.72
2022-08-21T14:47:12.257Z,100254.63
2022-08-21T14:49:39.850Z,100255.13
2022-08-21T14:52:07.010Z,100250.81
2022-08-21T14:54:34.624Z,100259.00
2022-08-21T14:57:09.807Z,100266.09
2022-08-21T14:59:38.756Z,100272.19
2022-08-21T15:02:09.741Z,100288.94
2022-08-21T15:04:37.048Z,100299.94
2022-08-21T15:07:05.469Z,100318.56
2022-08-21T15:09:32.608Z,100320.13
2022-08-21T15:12:02.968Z,100322.16
2022-08-21T15:14:33.575Z,100314.69
2022-08-21T15:17:00.880Z,100308.28
2022-08-21T15:19:28.473Z,100295.31
2022-08-21T15:21:55.796Z,100310.31
2022-08-21T15:24:23.383Z,100298.84
2022-08-21T15:26:51.665Z,100292.75
2022-08-21T15:29:20.704Z,100306.13
2022-08-21T15:31:57.621Z,100304.19
2022-08-21T15:34:27.353Z,100303.91
2022-08-21T15:36:59.216Z,100300.91
2022-08-21T15:39:31.034Z,100296.97
2022-08-21T15:42:02.794Z,100291.84
2022-08-21T15:44:40.112Z,100280.97
2022-08-21T15:47:12.339Z,100279.06
2022-08-21T15:49:39.488Z,100284.19
2022-08-21T15:52:06.669Z,100273.72
2022-08-21T15:54:33.825Z,100271.41
2022-08-21T15:57:01.061Z,100265.75
2022-08-21T15:59:28.464Z,100261.03
2022-08-21T16:01:55.575Z,100265.38
2022-08-21T16:04:29.069Z,100256.75
2022-08-21T16:07:03.153Z,100257.22
2022-08-21T16:09:33.846Z,100264.25
2022-08-21T16:12:02.238Z,100268.91
2022-08-21T16:14:31.682Z,100277.19
2022-08-21T16:16:59.484Z,100285.19
2022-08-21T16:19:29.066Z,100287.41
2022-08-21T16:21:56.344Z,100292.72
2022-08-21T16:24:23.597Z,100301.59
2022-08-21T16:26:58.306Z,100315.13
2022-08-21T16:29:31.512Z,100313.84
2022-08-21T16:31:58.742Z,100315.31
2022-08-21T16:34:27.893Z,100311.59
2022-08-21T16:36:55.597Z,100306.53
2022-08-21T16:39:23.032Z,100303.97
2022-08-21T16:41:51.138Z,100308.94
2022-08-21T16:44:19.937Z,100310.66
2022-08-21T16:46:47.163Z,100316.94
2022-08-21T16:49:14.700Z,100335.50
2022-08-21T16:51:41.896Z,100350.25
2022-08-21T16:54:09.710Z,100360.50
2022-08-21T16:56:40.029Z,100357.66
2022-08-21T16:59:07.733Z,100348.78
2022-08-21T17:01:37.226Z,100345.97
2022-08-21T17:04:05.782Z,100341.00
2022-08-21T17:06:33.351Z,100329.75
2022-08-21T17:09:01.372Z,100337.72
2022-08-21T17:11:37.611Z,100333.06
2022-08-21T17:14:20.399Z,100330.50
2022-08-21T17:16:52.491Z,100311.88
2022-08-21T17:19:20.244Z,100331.63
2022-08-21T17:21:47.588Z,100335.25
2022-08-21T17:24:15.694Z,100328.47
2022-08-21T17:26:44.647Z,100321.25
2022-08-21T17:29:14.663Z,100327.38
2022-08-21T17:31:44.350Z,100324.06
2022-08-21T17:34:12.686Z,100320.88
2022-08-21T17:36:40.178Z,100323.88
2022-08-21T17:39:07.439Z,100312.34
2022-08-21T17:41:34.777Z,100298.84
2022-08-21T17:44:07.274Z,100316.06
2022-08-21T17:46:34.799Z,100310.75
2022-08-21T17:49:02.147Z,100316.16
2022-08-21T17:51:29.307Z,100333.41
2022-08-21T17:53:57.363Z,100332.13
2022-08-21T17:56:31.083Z,100330.19
2022-08-21T17:58:58.588Z,100338.88
2022-08-21T18:01:29.133Z,100345.75
2022-08-21T18:03:56.388Z,100337.53
2022-08-21T18:06:23.569Z,100338.63
2022-08-21T18:08:50.824Z,100322.81
2022-08-21T18:11:24.038Z,100340.81
2022-08-21T18:13:51.849Z,100337.88
2022-08-21T18:16:19.688Z,100340.19
2022-08-21T18:18:49.140Z,100337.38
2022-08-21T18:21:17.316Z,100335.19
2022-08-21T18:23:45.198Z,100347.38
2022-08-21T18:26:21.252Z,100338.38
2022-08-21T18:28:48.811Z,100339.50
2022-08-21T18:31:16.167Z,100349.69
2022-08-21T18:33:57.864Z,100312.56
2022-08-21T18:36:27.975Z,100343.03
2022-08-21T18:39:13.602Z,100362.00
2022-08-21T18:41:46.308Z,100359.44
2022-08-21T18:44:15.085Z,100360.78
2022-08-21T18:46:46.604Z,100368.19
2022-08-21T18:49:13.815Z,100380.19
2022-08-21T18:51:45.178Z,100389.97
2022-08-21T18:54:13.101Z,100405.63
2022-08-21T18:56:41.737Z,100426.66
2022-08-21T18:59:10.408Z,100426.00
2022-08-21T19:01:38.314Z,100434.28
2022-08-21T19:04:08.945Z,100428.09
2022-08-21T19:06:36.795Z,100425.28
2022-08-21T19:09:10.208Z,100435.53
2022-08-21T19:11:43.179Z,100422.63
2022-08-21T19:14:15.841Z,100422.03
2022-08-21T19:16:46.972Z,100422.03
2022-08-21T19:19:17.769Z,100419.31
2022-08-21T19:21:47.168Z,100403.16
2022-08-21T19:24:18.095Z,100412.19
2022-08-21T19:26:45.816Z,100416.06
2022-08-21T19:29:18.449Z,100404.72
2022-08-21T19:31:46.501Z,100409.03
2022-08-21T19:34:20.216Z,100409.78
2022-08-21T19:36:47.524Z,100413.66
2022-08-21T19:39:16.067Z,100392.72
2022-08-21T19:41:46.420Z,100414.88
2022-08-21T19:44:23.373Z,100403.03
2022-08-21T19:46:52.820Z,100410.56
2022-08-21T19:49:23.395Z,100403.19
2022-08-21T19:51:50.632Z,100398.91
2022-08-21T19:54:22.949Z,100401.63
2022-08-21T19:56:51.976Z,100403.72
2022-08-21T19:59:24.739Z,100392.22
2022-08-21T20:01:52.360Z,100400.38
2022-08-21T20:04:20.209Z,100383.69
2022-08-21T20:06:47.885Z,100401.22
2022-08-21T20:09:17.262Z,100391.88
2022-08-21T20:11:54.283Z,100394.19
2022-08-21T20:14:25.511Z,100393.84
2022-08-21T20:16:53.501Z,100399.75
2022-08-21T20:19:22.334Z,100396.06
2022-08-21T20:21:49.485Z,100395.09
2022-08-21T20:24:17.141Z,100382.06
2022-08-21T20:26:48.684Z,100381.47
2022-08-21T20:29:23.863Z,100380.69
2022-08-21T20:31:53.256Z,100378.81
2022-08-21T20:34:20.894Z,100376.66
2022-08-21T20:36:48.100Z,100369.44
2022-08-21T20:39:23.921Z,100385.00
2022-08-21T20:41:53.431Z,100383.44
2022-08-21T20:44:21.195Z,100394.09
2022-08-21T20:46:48.761Z,100392.53
2022-08-21T20:49:28.223Z,100394.09
2022-08-21T20:51:57.217Z,100380.88
2022-08-21T20:54:50.161Z,100385.34
2022-08-21T20:57:43.557Z,100388.50
2022-08-21T21:00:17.520Z,100388.56
2022-08-21T21:03:01.180Z,100387.22
2022-08-21T21:05:52.937Z,100382.31
2022-08-21T21:08:31.564Z,100394.75
2022-08-21T21:11:24.713Z,100386.25
2022-08-21T21:13:58.386Z,100397.50
2022-08-21T21:16:36.677Z,100388.22
2022-08-21T21:19:26.831Z,100407.97
2022-08-21T21:22:03.636Z,100404.72
2022-08-21T21:24:45.716Z,100416.59
2022-08-21T21:27:23.702Z,100412.34
2022-08-21T21:30:05.507Z,100413.34
2022-08-21T21:32:32.918Z,100418.41
2022-08-21T21:35:03.515Z,100412.03
2022-08-21T21:37:46.954Z,100422.50
2022-08-21T21:40:25.385Z,100419.88
2022-08-21T21:43:32.389Z,100422.81
2022-08-21T21:46:05.645Z,100420.06
2022-08-21T21:48:47.622Z,100415.59
2022-08-21T21:51:27.956Z,100408.25
2022-08-21T21:54:35.432Z,100409.03
2022-08-21T21:57:41.849Z,100402.78
2022-08-21T22:00:26.752Z,100405.34
2022-08-21T22:03:13.413Z,100393.94
2022-08-21T22:05:57.685Z,100411.34
2022-08-21T22:09:01.760Z,100412.81
2022-08-21T22:14:41.988Z,100404.16
2022-08-21T22:17:33.379Z,100398.50
2022-08-21T22:20:07.854Z,100389.16
2022-08-21T22:22:39.713Z,100394.91
2022-08-21T22:25:21.456Z,100389.66
2022-08-21T22:27:57.873Z,100387.31
2022-08-21T22:30:51.871Z,100389.31
2022-08-21T22:33:27.112Z,100400.28
2022-08-21T22:35:58.890Z,100399.00
2022-08-21T22:38:26.187Z,100411.22
2022-08-21T22:41:23.712Z,100398.78
2022-08-21T22:46:58.095Z,100397.34
2022-08-21T22:49:46.709Z,100400.63
2022-08-21T22:52:26.747Z,100405.47
2022-08-21T22:54:58.463Z,100405.66
2022-08-21T22:57:27.506Z,100402.13
2022-08-21T23:00:45.716Z,100402.56
2022-08-21T23:03:41.958Z,100394.03
2022-08-21T23:06:32.848Z,100409.97
2022-08-21T23:09:01.137Z,100405.69
2022-08-21T23:11:50.778Z,100415.03
2022-08-21T23:14:18.881Z,100419.59
2022-08-21T23:17:00.948Z,100422.22
2022-08-21T23:19:51.469Z,100419.88
2022-08-21T23:22:49.576Z,100412.41
2022-08-21T23:25:38.515Z,100413.34
2022-08-21T23:28:29.877Z,100412.00
2022-08-21T23:31:16.091Z,100407.66
2022-08-21T23:34:10.518Z,100411.50
2022-08-21T23:37:48.444Z,100409.91
2022-08-21T23:40:41.036Z,100421.63
2022-08-21T23:43:43.667Z,100423.94
2022-08-21T23:46:32.373Z,100422.41
2022-08-21T23:49:08.774Z,100416.25
2022-08-21T23:51:44.972Z,100418.59
2022-08-21T23:54:27.076Z,100413.13
2022-08-21T23:57:31.216Z,100407.69
